首页
METAR-TAF:

METAR-TAF

机场 :

Shahrekord, 伊朗

纬度: 32-20N, 经度: 050-51E, 海拔: 2078米

当前天气观测

该预报发布于1小时和0分钟前的08:00 UTC
风速14节,风向西转西南
温度 15°C
湿度 27%
气压 1019 hPa
能见度10公里或以上
少量云层高于4000英尺

METAR: OIFS 030800Z 24014KT 9999 FEW040 15/M04 Q1019

时间: 13:30 (09:00 UTC)


TAF: 丢失

超过4000个机场的气象观测和天气预报(METAR&TAF报告)。

可查询的气象台以黄色和红色小点在地图上表示。

将鼠标移到小点上方,可查看气象台名称。

然后点击查看天气观测和预报。

如需切换地图:点击带黑十字的绿色按钮放大地图;点击带横线的绿色按钮缩小地图;或者点击绿色箭头查看邻近地区的地图。


METAR-TAF: